createdAt,value
2023-02-14T05:00:27.576Z,26.10
2023-02-14T05:11:32.303Z,29.00
2023-02-14T05:22:32.208Z,46.60
2023-02-14T05:33:32.069Z,35.40
2023-02-14T05:44:32.021Z,30.40
2023-02-14T05:55:31.823Z,21.60
2023-02-14T06:06:31.704Z,33.00
2023-02-14T06:17:31.580Z,25.60
2023-02-14T06:28:31.490Z,30.40
2023-02-14T06:39:31.353Z,28.80
2023-02-14T06:50:31.224Z,26.20
2023-02-14T07:01:31.147Z,29.70
2023-02-14T07:12:30.970Z,21.40
2023-02-14T07:23:30.862Z,18.40
2023-02-14T07:34:30.736Z,25.80
2023-02-14T07:45:30.616Z,20.50
2023-02-14T07:56:30.488Z,27.10
2023-02-14T08:07:30.358Z,46.90
2023-02-14T08:18:30.228Z,25.20
2023-02-14T08:29:30.124Z,26.40
2023-02-14T08:40:29.963Z,26.80
2023-02-14T08:51:29.869Z,36.50
2023-02-14T09:02:29.818Z,34.00
2023-02-14T09:13:29.590Z,30.60
2023-02-14T09:24:29.468Z,33.80
2023-02-14T09:35:29.352Z,37.00
2023-02-14T09:46:29.240Z,24.80
2023-02-14T09:57:29.139Z,31.00
2023-02-14T10:08:28.987Z,25.00
2023-02-14T10:19:28.848Z,28.70
2023-02-14T10:30:28.858Z,30.20
2023-02-14T10:41:28.595Z,26.90
2023-02-14T10:52:28.484Z,29.00
2023-02-14T11:03:28.423Z,39.60
2023-02-14T11:14:28.288Z,34.30
2023-02-14T11:25:28.119Z,39.60
2023-02-14T11:36:28.015Z,43.00
2023-02-14T11:47:27.887Z,36.80
2023-02-14T11:58:27.833Z,43.60
2023-02-14T12:09:27.676Z,37.80
2023-02-14T12:20:27.499Z,34.80
2023-02-14T12:31:27.505Z,29.30
2023-02-14T12:42:27.241Z,51.40
2023-02-14T12:53:27.110Z,54.90
2023-02-14T13:04:26.993Z,40.90
2023-02-14T13:15:27.309Z,36.50
2023-02-14T13:26:27.153Z,44.00
2023-02-14T13:37:27.251Z,46.40
2023-02-14T13:48:26.500Z,37.30
2023-02-14T13:59:26.902Z,40.40
2023-02-14T14:10:26.267Z,41.90
2023-02-14T14:21:26.114Z,42.50
2023-02-14T14:32:25.990Z,38.40
2023-02-14T14:43:25.865Z,45.80
2023-02-14T14:54:25.755Z,36.10
2023-02-14T15:05:25.632Z,38.80
2023-02-14T15:16:25.508Z,47.80
2023-02-14T15:27:25.403Z,47.10
2023-02-14T15:38:25.252Z,39.40
2023-02-14T15:49:25.132Z,44.20
2023-02-14T16:00:25.051Z,41.40
2023-02-14T16:11:24.883Z,38.60
2023-02-14T16:22:24.795Z,47.70
2023-02-14T16:33:24.659Z,38.20
2023-02-14T16:44:24.500Z,46.80
2023-02-14T16:55:24.375Z,47.60
2023-02-14T17:06:24.256Z,47.00
2023-02-14T17:17:24.211Z,33.50
2023-02-14T17:28:23.996Z,44.70
2023-02-14T17:39:23.888Z,46.70
2023-02-14T17:50:23.760Z,48.60
2023-02-14T18:01:23.723Z,34.10
2023-02-14T18:12:23.507Z,49.80
2023-02-14T18:23:23.427Z,53.50
2023-02-14T18:34:23.258Z,53.20
2023-02-14T18:45:23.186Z,60.60
2023-02-14T18:56:23.005Z,56.50
2023-02-14T19:07:22.898Z,49.50
2023-02-14T19:18:24.796Z,62.70
2023-02-14T19:29:22.675Z,52.20
2023-02-14T19:40:22.519Z,66.80
2023-02-14T19:51:22.390Z,58.90
2023-02-14T20:02:22.419Z,101.00
2023-02-14T20:13:22.137Z,71.50
2023-02-14T20:24:22.026Z,103.00
2023-02-14T20:35:21.905Z,58.60
2023-02-14T20:46:21.876Z,70.30
2023-02-14T20:57:21.676Z,70.60
2023-02-14T21:08:21.530Z,53.90
2023-02-14T21:19:21.403Z,45.50
2023-02-14T21:30:21.353Z,48.50
2023-02-14T21:41:21.171Z,42.40
2023-02-14T21:52:21.058Z,37.40
